Stevenson Ranch, California
Current Conditions -  °F | °C
As of 8:51 AM on Monday 22 Dec 2014 (Local Time) from KVNY Reporting Station
Clear Clear  
Wind Chill: 68°   Ceiling: Unl
Heat Index: 68°   Visibility: 10mi
Dew Point: 44°   Wind: 16mph
Humidity: 42%   Direction: 350°N
Pressure: 30.05"   Gusts: 26mph
Location:  34.38°N, 118.58°W
Report Text: KVNY 221651Z 35014G23KT 10SM CLR 20/07 A3005 RMK AO2 SLP168 T02000067
Loading
Personal Weather Stations






























Interactive Weather Map New forecast layout! Learn more

10-Day Weather Forecast

Advertisements
Track Severe Weather on mobile